createdAt,value
2022-11-19T00:01:23.783Z,1.00
2022-11-19T00:03:52.996Z,0.93
2022-11-19T00:06:22.239Z,0.90
2022-11-19T00:08:50.010Z,1.03
2022-11-19T00:11:39.049Z,1.10
2022-11-19T00:14:07.008Z,1.03
2022-11-19T00:16:34.398Z,1.20
2022-11-19T00:19:01.721Z,0.90
2022-11-19T00:21:29.114Z,1.27
2022-11-19T00:23:56.934Z,0.93
2022-11-19T00:26:24.582Z,1.10
2022-11-19T00:28:52.187Z,1.10
2022-11-19T00:31:20.083Z,0.90
2022-11-19T00:33:49.553Z,0.70
2022-11-19T00:36:17.309Z,1.17
2022-11-19T00:38:44.767Z,0.83
2022-11-19T00:41:12.551Z,1.10
2022-11-19T00:43:49.742Z,0.87
2022-11-19T00:46:18.517Z,0.60
2022-11-19T00:48:46.481Z,0.80
2022-11-19T00:51:13.938Z,0.50
2022-11-19T00:53:41.339Z,0.70
2022-11-19T00:56:09.999Z,0.90
2022-11-19T00:58:37.601Z,0.77
2022-11-19T01:01:05.748Z,0.70
2022-11-19T01:03:33.385Z,0.80
2022-11-19T01:06:00.841Z,0.80
2022-11-19T01:08:28.524Z,0.90
2022-11-19T01:10:55.883Z,0.80
2022-11-19T01:13:35.389Z,1.00
2022-11-19T01:16:13.347Z,0.90
2022-11-19T01:18:41.342Z,0.93
2022-11-19T01:21:10.875Z,0.80
2022-11-19T01:23:38.832Z,0.70
2022-11-19T01:26:06.476Z,0.70
2022-11-19T01:28:34.190Z,0.87
2022-11-19T01:31:01.565Z,0.67
2022-11-19T01:33:28.866Z,0.70
2022-11-19T01:35:57.333Z,0.67
2022-11-19T01:38:24.785Z,0.60
2022-11-19T01:40:52.122Z,1.10
2022-11-19T01:43:19.513Z,0.70
2022-11-19T01:45:54.416Z,0.70
2022-11-19T01:48:21.865Z,0.83
2022-11-19T01:50:54.002Z,0.80
2022-11-19T01:53:22.760Z,0.70
2022-11-19T01:55:50.905Z,0.70
2022-11-19T01:58:20.043Z,0.70
2022-11-19T02:00:48.062Z,0.60
2022-11-19T02:03:16.473Z,0.50
2022-11-19T02:05:44.465Z,0.50
2022-11-19T02:08:31.756Z,0.57
2022-11-19T02:11:04.006Z,0.50
2022-11-19T02:13:37.872Z,0.50
2022-11-19T02:16:22.507Z,0.33
2022-11-19T02:18:59.656Z,0.50
2022-11-19T02:21:31.426Z,0.50
2022-11-19T02:23:58.736Z,0.50
2022-11-19T02:26:31.798Z,0.60
2022-11-19T02:29:02.046Z,0.70
2022-11-19T02:31:38.491Z,0.50
2022-11-19T02:34:17.405Z,0.63
2022-11-19T02:36:52.612Z,0.50
2022-11-19T02:39:24.339Z,0.50
2022-11-19T02:41:56.978Z,0.70
2022-11-19T02:44:48.550Z,0.63
2022-11-19T02:47:20.793Z,0.50
2022-11-19T02:49:48.178Z,0.60
2022-11-19T02:52:16.215Z,0.50
2022-11-19T02:54:43.581Z,0.60
2022-11-19T02:57:12.589Z,0.60
2022-11-19T03:00:00.241Z,0.53
2022-11-19T03:02:49.498Z,0.40
2022-11-19T03:05:19.893Z,0.60
2022-11-19T03:07:47.601Z,0.47
2022-11-19T03:10:16.072Z,0.40
2022-11-19T03:12:46.506Z,0.60
2022-11-19T03:15:47.828Z,0.40
2022-11-19T03:18:41.263Z,0.40
2022-11-19T03:21:11.104Z,0.40
2022-11-19T03:23:40.971Z,0.73
2022-11-19T03:26:28.614Z,0.30
2022-11-19T03:28:57.972Z,0.37
2022-11-19T03:31:27.395Z,0.47
2022-11-19T03:33:57.890Z,0.53
2022-11-19T03:36:27.765Z,0.60
2022-11-19T03:38:57.029Z,0.70
2022-11-19T03:41:25.180Z,0.60
2022-11-19T03:43:54.504Z,0.50
2022-11-19T03:46:22.848Z,0.50
2022-11-19T03:48:53.606Z,0.30
2022-11-19T03:51:39.639Z,0.43
2022-11-19T03:54:07.169Z,0.40
2022-11-19T03:56:35.888Z,0.60
2022-11-19T03:59:03.766Z,0.50
2022-11-19T04:01:31.433Z,0.37
2022-11-19T04:04:17.336Z,0.30
2022-11-19T04:06:44.795Z,0.40
2022-11-19T04:09:12.212Z,0.50
2022-11-19T04:11:39.653Z,0.40
2022-11-19T04:14:07.202Z,0.60
2022-11-19T04:16:34.520Z,0.30
2022-11-19T04:19:01.949Z,0.50
2022-11-19T04:21:29.268Z,0.40
2022-11-19T04:23:56.504Z,0.30
2022-11-19T04:26:23.871Z,0.40
2022-11-19T04:28:51.247Z,0.40
2022-11-19T04:31:18.529Z,0.40
2022-11-19T04:33:45.902Z,0.40
2022-11-19T04:36:13.329Z,0.40
2022-11-19T04:38:40.710Z,0.20
2022-11-19T04:41:08.012Z,0.20
2022-11-19T04:43:35.286Z,0.33
2022-11-19T04:46:02.684Z,0.30
2022-11-19T04:48:30.150Z,0.30
2022-11-19T04:50:57.561Z,0.40
2022-11-19T04:53:24.864Z,0.50
2022-11-19T04:55:52.367Z,0.60
2022-11-19T04:58:19.727Z,0.47
2022-11-19T05:00:48.718Z,0.40
2022-11-19T05:03:16.146Z,0.40
2022-11-19T05:05:43.540Z,0.30
2022-11-19T05:08:13.670Z,0.40
2022-11-19T05:10:41.070Z,0.30
2022-11-19T05:13:08.433Z,0.40
2022-11-19T05:15:35.766Z,0.30
2022-11-19T05:18:03.118Z,0.50
2022-11-19T05:20:30.613Z,0.80
2022-11-19T05:22:58.018Z,0.40
2022-11-19T05:25:25.366Z,0.33
2022-11-19T05:27:52.920Z,0.40
2022-11-19T05:30:20.345Z,0.37
2022-11-19T05:32:48.271Z,0.30
2022-11-19T05:35:15.657Z,0.40
2022-11-19T05:37:43.055Z,0.30
2022-11-19T05:40:13.228Z,0.30
2022-11-19T05:42:40.546Z,0.33
2022-11-19T05:45:08.186Z,0.33
2022-11-19T05:47:36.428Z,0.40
2022-11-19T05:50:04.070Z,0.40
2022-11-19T05:52:31.491Z,0.33
2022-11-19T05:54:58.928Z,0.30
2022-11-19T05:57:26.312Z,0.47
2022-11-19T05:59:53.668Z,0.30
2022-11-19T06:02:21.201Z,0.40
2022-11-19T06:04:48.640Z,0.77
2022-11-19T06:07:16.189Z,0.57
2022-11-19T06:09:43.641Z,0.50
2022-11-19T06:12:13.589Z,0.50
2022-11-19T06:14:42.032Z,0.70
2022-11-19T06:17:09.418Z,0.50
2022-11-19T06:19:36.833Z,0.40
2022-11-19T06:22:05.256Z,0.50
2022-11-19T06:24:32.522Z,0.40
2022-11-19T06:26:59.954Z,0.50
2022-11-19T06:29:27.398Z,0.60
2022-11-19T06:31:54.823Z,0.80
2022-11-19T06:34:22.209Z,0.33
2022-11-19T06:36:50.880Z,0.40
2022-11-19T06:39:19.134Z,0.60
2022-11-19T06:41:48.889Z,0.83
2022-11-19T06:44:16.356Z,1.70
2022-11-19T06:46:43.732Z,1.63
2022-11-19T06:49:15.451Z,1.20
2022-11-19T06:51:45.923Z,0.97
2022-11-19T06:54:13.378Z,0.90
2022-11-19T06:56:40.707Z,0.70
2022-11-19T06:59:08.001Z,0.70
2022-11-19T07:01:35.450Z,0.80
2022-11-19T07:04:02.782Z,0.93
2022-11-19T07:06:30.065Z,0.47
2022-11-19T07:08:57.473Z,0.37
2022-11-19T07:11:28.182Z,0.70
2022-11-19T07:13:59.882Z,0.70
2022-11-19T07:16:28.961Z,0.40
2022-11-19T07:18:57.848Z,0.60
2022-11-19T07:21:25.569Z,1.53
2022-11-19T07:23:52.974Z,1.10
2022-11-19T07:26:20.327Z,0.43
2022-11-19T07:28:47.741Z,0.40
2022-11-19T07:31:15.130Z,0.40
2022-11-19T07:33:42.692Z,0.63
2022-11-19T07:36:17.944Z,1.73
2022-11-19T07:38:45.879Z,2.10
2022-11-19T07:41:32.038Z,1.80
2022-11-19T07:43:59.356Z,1.73
2022-11-19T07:46:26.742Z,2.17
2022-11-19T07:48:58.055Z,1.80
2022-11-19T07:51:25.787Z,1.70
2022-11-19T07:53:53.345Z,1.37
2022-11-19T07:56:20.899Z,1.60
2022-11-19T07:58:48.547Z,1.93
2022-11-19T08:01:20.228Z,1.83
2022-11-19T08:03:52.022Z,1.40
2022-11-19T08:06:24.193Z,1.37
2022-11-19T08:08:51.602Z,1.23
2022-11-19T08:11:18.987Z,1.30
2022-11-19T08:13:46.492Z,1.07
2022-11-19T08:16:34.964Z,1.20
2022-11-19T08:19:09.838Z,1.03
2022-11-19T08:21:37.914Z,1.90
2022-11-19T08:24:05.338Z,1.50
2022-11-19T08:26:32.714Z,0.93
2022-11-19T08:29:00.144Z,1.10
2022-11-19T08:31:27.701Z,1.10
2022-11-19T08:33:55.046Z,0.93
2022-11-19T08:36:22.777Z,1.00
2022-11-19T08:38:50.208Z,1.00
2022-11-19T08:41:36.259Z,1.37
2022-11-19T08:44:04.204Z,1.37
2022-11-19T08:46:31.575Z,1.27
2022-11-19T08:48:58.938Z,1.10
2022-11-19T08:51:26.439Z,1.53
2022-11-19T08:53:54.092Z,1.50
2022-11-19T08:56:21.834Z,1.20
2022-11-19T08:58:49.292Z,1.30
2022-11-19T09:01:17.660Z,1.80
2022-11-19T09:03:45.207Z,2.00
2022-11-19T09:06:13.058Z,1.50
2022-11-19T09:08:40.640Z,1.20
2022-11-19T09:11:08.638Z,1.30
2022-11-19T09:13:36.133Z,1.20
2022-11-19T09:16:03.624Z,1.30
2022-11-19T09:18:31.877Z,1.87
2022-11-19T09:20:59.976Z,1.67
2022-11-19T09:23:27.748Z,1.53
2022-11-19T09:26:15.363Z,1.20
2022-11-19T09:28:43.231Z,1.53
2022-11-19T09:31:17.826Z,1.33
2022-11-19T09:33:47.083Z,1.50
2022-11-19T09:36:15.569Z,2.20
2022-11-19T09:38:43.067Z,2.43
2022-11-19T09:41:28.904Z,2.10
2022-11-19T09:44:14.854Z,2.10
2022-11-19T09:46:42.120Z,1.80
2022-11-19T09:49:15.126Z,2.00
2022-11-19T09:51:47.093Z,2.30
2022-11-19T09:54:19.507Z,2.13
2022-11-19T09:56:47.838Z,2.03
2022-11-19T09:59:26.702Z,2.00
2022-11-19T10:01:55.069Z,2.30
2022-11-19T10:04:23.671Z,2.23
2022-11-19T10:07:09.124Z,2.13
2022-11-19T10:09:42.333Z,1.40
2022-11-19T10:12:12.735Z,1.47
2022-11-19T10:14:48.821Z,1.40
2022-11-19T10:17:16.154Z,1.60
2022-11-19T10:19:55.546Z,0.80
2022-11-19T10:22:24.079Z,0.50
2022-11-19T10:24:54.386Z,0.50
2022-11-19T10:27:32.268Z,0.60
2022-11-19T10:30:03.044Z,0.30
2022-11-19T10:32:36.448Z,0.40
2022-11-19T10:35:23.920Z,0.53
2022-11-19T10:38:02.707Z,0.60
2022-11-19T10:40:46.099Z,0.60
2022-11-19T10:43:25.351Z,0.40
2022-11-19T10:45:52.766Z,0.20
2022-11-19T10:48:30.087Z,0.30
2022-11-19T10:51:00.056Z,0.30
2022-11-19T10:53:28.661Z,0.33
2022-11-19T10:55:58.079Z,0.40
2022-11-19T10:58:27.153Z,0.40
2022-11-19T11:00:55.617Z,0.30
2022-11-19T11:03:23.030Z,0.33
2022-11-19T11:06:05.503Z,0.30
2022-11-19T11:08:33.835Z,0.30
2022-11-19T11:11:01.768Z,0.37
2022-11-19T11:13:53.454Z,0.40
2022-11-19T11:16:40.928Z,0.20
2022-11-19T11:19:13.907Z,0.30
2022-11-19T11:21:43.096Z,0.37
2022-11-19T11:24:13.764Z,0.30
2022-11-19T11:26:41.635Z,0.30
2022-11-19T11:29:14.746Z,0.30
2022-11-19T11:31:42.164Z,0.20
2022-11-19T11:34:28.896Z,0.30
2022-11-19T11:36:56.865Z,0.20
2022-11-19T11:39:35.392Z,0.20
2022-11-19T11:42:05.840Z,0.30
2022-11-19T11:44:35.074Z,0.30
2022-11-19T11:47:11.789Z,0.20
2022-11-19T11:49:43.504Z,0.20
2022-11-19T11:52:10.768Z,0.20
2022-11-19T11:54:39.186Z,0.20
2022-11-19T11:57:15.991Z,0.20
2022-11-19T11:59:43.438Z,0.20
2022-11-19T12:02:22.352Z,0.20
2022-11-19T12:04:50.764Z,0.30
2022-11-19T12:07:33.671Z,0.17
2022-11-19T12:10:04.106Z,0.20
2022-11-19T12:12:46.534Z,0.20
2022-11-19T12:15:32.432Z,0.10
2022-11-19T12:18:19.562Z,0.20
2022-11-19T12:20:53.052Z,0.20
2022-11-19T12:23:44.249Z,0.10
2022-11-19T12:26:12.922Z,0.13
2022-11-19T12:28:58.977Z,0.30
2022-11-19T12:31:30.218Z,0.20
2022-11-19T12:34:00.476Z,0.10
2022-11-19T12:36:37.059Z,0.30
2022-11-19T12:39:09.761Z,0.20
2022-11-19T12:41:37.105Z,0.10
2022-11-19T12:44:11.006Z,0.10
2022-11-19T12:46:38.459Z,0.20
2022-11-19T12:49:18.199Z,0.20
2022-11-19T12:51:45.744Z,0.23
2022-11-19T12:54:25.368Z,0.27
2022-11-19T12:57:17.278Z,0.20
2022-11-19T12:59:53.763Z,0.30
2022-11-19T13:02:31.176Z,0.40
2022-11-19T13:05:01.753Z,0.20
2022-11-19T13:07:34.444Z,0.30
2022-11-19T13:10:17.276Z,0.30
2022-11-19T13:12:46.697Z,0.20
2022-11-19T13:15:32.496Z,0.20
2022-11-19T13:18:02.176Z,0.10
2022-11-19T13:20:32.540Z,0.30
2022-11-19T13:23:02.733Z,0.20
2022-11-19T13:25:32.695Z,0.17
2022-11-19T13:28:02.333Z,0.40
2022-11-19T13:30:32.238Z,0.27
2022-11-19T13:33:18.244Z,0.20
2022-11-19T13:35:56.125Z,0.20
2022-11-19T13:38:23.519Z,0.20
2022-11-19T13:40:50.826Z,0.20
2022-11-19T13:43:40.820Z,0.33
2022-11-19T13:46:08.209Z,0.20
2022-11-19T13:48:39.906Z,0.20
2022-11-19T13:51:09.989Z,0.30
2022-11-19T13:53:43.645Z,0.30
2022-11-19T13:56:15.178Z,0.40
2022-11-19T13:58:47.333Z,0.37
2022-11-19T14:01:20.880Z,0.20
2022-11-19T14:03:51.277Z,0.30
2022-11-19T14:06:18.640Z,0.37
2022-11-19T14:08:58.374Z,0.20
2022-11-19T14:11:44.506Z,0.40
2022-11-19T14:14:34.528Z,0.40
2022-11-19T14:17:26.299Z,0.30
2022-11-19T14:20:15.888Z,0.30
2022-11-19T14:23:02.140Z,0.40
2022-11-19T14:25:59.918Z,0.30
2022-11-19T14:28:46.243Z,0.40
2022-11-19T14:31:13.887Z,0.30
2022-11-19T14:33:42.611Z,0.30
2022-11-19T14:36:14.132Z,0.50
2022-11-19T14:38:49.208Z,0.40
2022-11-19T14:41:23.852Z,0.40
2022-11-19T14:44:09.762Z,0.50
2022-11-19T14:46:47.881Z,0.40
2022-11-19T14:49:31.416Z,0.40
2022-11-19T14:51:58.825Z,0.40
2022-11-19T14:54:31.631Z,0.50
2022-11-19T14:57:05.817Z,0.63
2022-11-19T14:59:37.610Z,0.50
2022-11-19T15:02:12.709Z,0.60
2022-11-19T15:04:41.466Z,0.70
2022-11-19T15:07:12.711Z,0.60
2022-11-19T15:09:58.526Z,0.43
2022-11-19T15:12:34.032Z,0.53
2022-11-19T15:15:21.409Z,0.67
2022-11-19T15:17:51.763Z,0.50
2022-11-19T15:20:19.139Z,0.80
2022-11-19T15:22:46.506Z,0.70
2022-11-19T15:25:23.834Z,0.70
2022-11-19T15:27:57.335Z,0.60
2022-11-19T15:30:27.234Z,0.70
2022-11-19T15:33:13.392Z,0.73
2022-11-19T15:35:40.870Z,0.53
2022-11-19T15:38:19.863Z,0.70
2022-11-19T15:40:48.518Z,0.70
2022-11-19T15:43:26.312Z,0.67
2022-11-19T15:46:01.224Z,0.57
2022-11-19T15:48:36.322Z,1.00
2022-11-19T15:51:04.293Z,0.73
2022-11-19T15:53:31.633Z,0.60
2022-11-19T15:56:06.946Z,0.80
2022-11-19T15:58:37.249Z,0.77
2022-11-19T16:01:05.236Z,1.00
2022-11-19T16:03:32.849Z,0.60
2022-11-19T16:06:20.423Z,0.80
2022-11-19T16:08:48.583Z,0.80
2022-11-19T16:11:38.280Z,0.77
2022-11-19T16:14:37.409Z,0.80
2022-11-19T16:17:32.008Z,0.50
2022-11-19T16:20:11.319Z,0.80
2022-11-19T16:22:41.354Z,1.10
2022-11-19T16:25:12.747Z,0.87
2022-11-19T16:27:43.511Z,1.00
2022-11-19T16:30:20.677Z,1.07
2022-11-19T16:32:48.548Z,1.13
2022-11-19T16:35:22.669Z,1.00
2022-11-19T16:37:50.220Z,1.10
2022-11-19T16:40:17.822Z,0.93
2022-11-19T16:42:53.707Z,0.73
2022-11-19T16:45:24.253Z,1.10
2022-11-19T16:48:02.442Z,0.83
2022-11-19T16:50:42.327Z,1.20
2022-11-19T16:53:12.643Z,0.83
2022-11-19T16:55:43.070Z,0.73
2022-11-19T16:58:10.373Z,1.30
2022-11-19T17:00:38.277Z,0.80
2022-11-19T17:03:17.359Z,0.90
2022-11-19T17:05:46.584Z,1.00
2022-11-19T17:08:33.651Z,0.60
2022-11-19T17:11:39.763Z,0.77
2022-11-19T17:14:25.248Z,1.53
2022-11-19T17:16:53.495Z,1.33
2022-11-19T17:19:24.954Z,1.03
2022-11-19T17:21:56.462Z,1.30
2022-11-19T17:24:27.771Z,1.30
2022-11-19T17:26:56.334Z,1.20
2022-11-19T17:29:24.173Z,1.40
2022-11-19T17:31:53.370Z,1.20
2022-11-19T17:34:27.331Z,1.40
2022-11-19T17:36:54.724Z,0.93
2022-11-19T17:39:25.659Z,1.10
2022-11-19T17:42:15.253Z,3.63
2022-11-19T17:44:42.826Z,2.00
2022-11-19T17:47:21.907Z,2.10
2022-11-19T17:49:50.143Z,2.80
2022-11-19T17:52:22.751Z,3.10
2022-11-19T17:54:50.862Z,1.93
2022-11-19T17:57:18.262Z,1.80
2022-11-19T17:59:45.661Z,2.73
2022-11-19T18:02:13.771Z,4.90
2022-11-19T18:04:42.113Z,5.00
2022-11-19T18:07:09.505Z,3.77
2022-11-19T18:09:37.022Z,3.27
2022-11-19T18:12:05.189Z,1.87
2022-11-19T18:14:32.579Z,3.50
2022-11-19T18:17:00.149Z,5.83
2022-11-19T18:19:28.846Z,3.47
2022-11-19T18:21:56.616Z,1.40
2022-11-19T18:24:24.453Z,3.07
2022-11-19T18:26:51.895Z,3.00
2022-11-19T18:29:19.759Z,1.77
2022-11-19T18:31:49.013Z,1.00
2022-11-19T18:34:20.706Z,1.70
2022-11-19T18:36:48.717Z,2.90
2022-11-19T18:39:16.102Z,2.40
2022-11-19T18:41:43.808Z,2.10
2022-11-19T18:44:33.713Z,2.03
2022-11-19T18:47:23.389Z,1.40
2022-11-19T18:49:50.792Z,1.40
2022-11-19T18:52:18.425Z,1.57
2022-11-19T18:54:45.957Z,1.90
2022-11-19T18:57:13.589Z,2.30
2022-11-19T18:59:41.620Z,2.50
2022-11-19T19:02:10.137Z,2.43
2022-11-19T19:04:37.524Z,1.87
2022-11-19T19:07:05.373Z,1.60
2022-11-19T19:09:32.766Z,1.60
2022-11-19T19:12:18.536Z,1.47
2022-11-19T19:14:47.405Z,1.60
2022-11-19T19:17:15.606Z,1.53
2022-11-19T19:19:42.971Z,1.70
2022-11-19T19:22:10.378Z,1.57
2022-11-19T19:24:38.193Z,1.57
2022-11-19T19:27:05.646Z,1.40
2022-11-19T19:29:33.026Z,1.20
2022-11-19T19:32:00.489Z,1.23
2022-11-19T19:34:29.192Z,1.30
2022-11-19T19:36:56.915Z,1.23
2022-11-19T19:39:24.741Z,0.93
2022-11-19T19:41:53.014Z,1.10
2022-11-19T19:44:20.320Z,1.03
2022-11-19T19:46:51.662Z,1.00
2022-11-19T19:49:19.647Z,1.10
2022-11-19T19:51:47.916Z,1.20
2022-11-19T19:54:15.264Z,1.80
2022-11-19T19:56:42.520Z,1.27
2022-11-19T19:59:10.784Z,1.20
2022-11-19T20:01:38.483Z,1.30
2022-11-19T20:04:07.498Z,1.10
2022-11-19T20:06:35.567Z,1.10
2022-11-19T20:09:08.807Z,1.00
2022-11-19T20:11:49.320Z,1.30
2022-11-19T20:14:16.758Z,1.07
2022-11-19T20:16:44.134Z,1.00
2022-11-19T20:19:15.112Z,1.20
2022-11-19T20:21:42.822Z,1.13
2022-11-19T20:24:13.477Z,1.27
2022-11-19T20:26:42.040Z,1.77
2022-11-19T20:29:11.503Z,1.50
2022-11-19T20:31:38.888Z,1.20
2022-11-19T20:34:06.442Z,1.37
2022-11-19T20:36:36.453Z,1.13
2022-11-19T20:39:05.164Z,1.37
2022-11-19T20:41:51.743Z,1.20
2022-11-19T20:44:23.395Z,1.30
2022-11-19T20:46:50.973Z,1.20
2022-11-19T20:49:19.636Z,1.17
2022-11-19T20:51:47.460Z,1.10
2022-11-19T20:54:15.306Z,1.00
2022-11-19T20:56:43.012Z,1.00
2022-11-19T20:59:10.728Z,1.37
2022-11-19T21:01:38.216Z,1.20
2022-11-19T21:04:05.733Z,1.10
2022-11-19T21:06:33.183Z,1.10
2022-11-19T21:09:00.625Z,1.10
2022-11-19T21:11:28.062Z,1.50
2022-11-19T21:13:55.444Z,2.33
2022-11-19T21:16:24.384Z,3.23
2022-11-19T21:18:52.010Z,2.33
2022-11-19T21:21:20.548Z,2.40
2022-11-19T21:23:47.876Z,4.50
2022-11-19T21:26:19.957Z,4.17
2022-11-19T21:28:49.095Z,2.90
2022-11-19T21:31:17.196Z,1.47
2022-11-19T21:33:44.759Z,1.10
2022-11-19T21:36:12.650Z,1.40
2022-11-19T21:38:40.068Z,1.53
2022-11-19T21:41:07.615Z,1.00
2022-11-19T21:43:35.397Z,1.03
2022-11-19T21:46:02.760Z,1.13
2022-11-19T21:48:30.072Z,1.10
2022-11-19T21:50:57.444Z,1.23
2022-11-19T21:53:24.844Z,1.10
2022-11-19T21:55:52.219Z,1.17
2022-11-19T21:58:19.588Z,1.40
2022-11-19T22:00:47.122Z,1.07
2022-11-19T22:03:14.928Z,2.00
2022-11-19T22:05:42.838Z,0.93
2022-11-19T22:08:10.238Z,1.00
2022-11-19T22:10:40.282Z,1.20
2022-11-19T22:13:11.674Z,1.30
2022-11-19T22:15:39.068Z,1.40
2022-11-19T22:18:06.555Z,1.40
2022-11-19T22:20:33.919Z,1.00
2022-11-19T22:23:01.270Z,1.33
2022-11-19T22:25:28.568Z,1.80
2022-11-19T22:27:55.922Z,1.80
2022-11-19T22:30:23.324Z,1.63
2022-11-19T22:32:50.711Z,1.40
2022-11-19T22:35:18.116Z,1.20
2022-11-19T22:37:45.456Z,0.80
2022-11-19T22:40:13.103Z,0.97
2022-11-19T22:42:40.431Z,0.90
2022-11-19T22:45:07.996Z,0.97
2022-11-19T22:47:35.961Z,1.20
2022-11-19T22:50:03.302Z,1.00
2022-11-19T22:52:31.096Z,0.90
2022-11-19T22:54:58.518Z,0.90
2022-11-19T22:57:27.751Z,0.80
2022-11-19T22:59:55.083Z,0.90
2022-11-19T23:02:22.495Z,0.97
2022-11-19T23:04:49.765Z,0.93
2022-11-19T23:07:17.326Z,0.87
2022-11-19T23:09:44.693Z,0.90
2022-11-19T23:12:30.838Z,0.70
2022-11-19T23:14:58.204Z,0.83
2022-11-19T23:17:25.548Z,1.00
2022-11-19T23:19:52.885Z,0.90
2022-11-19T23:22:20.226Z,1.10
2022-11-19T23:24:47.546Z,0.80
2022-11-19T23:27:17.950Z,0.77
2022-11-19T23:29:49.395Z,0.97
2022-11-19T23:32:16.704Z,1.10
2022-11-19T23:34:44.142Z,0.80
2022-11-19T23:37:11.529Z,0.83
2022-11-19T23:39:38.952Z,1.00
2022-11-19T23:42:06.253Z,0.70
2022-11-19T23:44:33.600Z,0.80
2022-11-19T23:47:00.876Z,0.70
2022-11-19T23:49:28.129Z,0.70
2022-11-19T23:51:55.485Z,0.80
2022-11-19T23:54:22.796Z,0.63
2022-11-19T23:56:50.155Z,0.90
2022-11-19T23:59:21.694Z,0.77
